Time;durP1;ratioP1;P1;durP2;ratioP2;P2;SDS_P1;SDS_P2;PMS_P1;PMS_P2;Temp;Humidity;BMP_temperature;BMP_pressure;BME280_temperature;BME280_humidity;BME280_pressure;Samples;Min_cycle;Max_cycle;Signal;HPM_P1;HPM_P2
2023/05/31 00:02:12;;;;;;;11.15;3.20;;;;;;;15.49;79.85;99403.91;4889668;29;20086;-91
2023/05/31 00:04:37;;;;;;;6.72;3.45;;;;;;;15.40;79.72;99392.94;4888990;29;20114;-90
2023/05/31 00:07:05;;;;;;;7.63;3.30;;;;;;;15.39;79.71;99402.19;4903833;29;20031;-90
2023/05/31 00:09:30;;;;;;;6.20;3.65;;;;;;;15.31;80.13;99397.44;4888518;29;20038;-90
2023/05/31 00:11:56;;;;;;;6.18;3.50;;;;;;;15.29;80.49;99402.38;4903637;29;20032;-90
2023/05/31 00:14:21;;;;;;;5.35;3.30;;;;;;;15.27;80.43;99396.44;4903808;29;20028;-91
2023/05/31 00:16:46;;;;;;;8.48;3.20;;;;;;;15.32;80.44;99402.56;4904002;29;20474;-90
2023/05/31 00:19:12;;;;;;;8.68;3.95;;;;;;;15.31;80.49;99402.88;4888284;29;20056;-90
2023/05/31 00:21:37;;;;;;;4.93;3.78;;;;;;;15.23;80.56;99406.28;4887955;29;20031;-90
2023/05/31 00:24:03;;;;;;;6.75;4.00;;;;;;;15.32;79.74;99409.91;4918531;29;20518;-90
2023/05/31 00:26:29;;;;;;;9.10;4.22;;;;;;;15.16;80.16;99391.19;4887895;29;20054;-90
2023/05/31 00:28:54;;;;;;;8.75;3.65;;;;;;;14.99;81.37;99390.97;4919169;29;20055;-89
2023/05/31 00:31:22;;;;;;;8.90;4.20;;;;;;;15.08;80.86;99399.22;4887957;29;20051;-90
2023/05/31 00:33:48;;;;;;;7.47;4.53;;;;;;;15.09;81.25;99406.25;4887873;29;20031;-90
2023/05/31 00:36:14;;;;;;;6.70;3.95;;;;;;;15.06;80.81;99391.38;4919948;29;20031;-90
2023/05/31 00:38:39;;;;;;;11.43;4.00;;;;;;;15.07;80.93;99406.56;4910142;29;20028;-88
2023/05/31 00:41:07;;;;;;;5.05;3.75;;;;;;;15.04;80.80;99403.63;4888688;29;20052;-90
2023/05/31 00:43:33;;;;;;;6.30;4.35;;;;;;;15.07;80.78;99411.97;4895231;29;20411;-90
2023/05/31 00:45:58;;;;;;;5.15;3.40;;;;;;;14.95;80.87;99389.94;4888598;29;20031;-90
2023/05/31 00:48:24;;;;;;;8.95;4.03;;;;;;;15.07;80.33;99395.69;4884685;29;20068;-88
2023/05/31 00:50:49;;;;;;;15.65;4.95;;;;;;;15.05;80.38;99411.47;4901050;29;20035;-90
2023/05/31 00:53:15;;;;;;;6.93;3.83;;;;;;;15.00;80.89;99411.53;4885212;29;20036;-90
2023/05/31 00:55:41;;;;;;;8.90;3.92;;;;;;;14.91;81.05;99389.72;4892868;29;20349;-89
2023/05/31 00:58:06;;;;;;;10.57;4.35;;;;;;;14.97;81.41;99404.00;4909811;29;20035;-89
2023/05/31 01:00:32;;;;;;;9.93;3.47;;;;;;;15.05;81.11;99421.50;4888307;29;20031;-89
2023/05/31 01:03:01;;;;;;;7.40;3.63;;;;;;;15.01;80.79;99407.72;4877038;29;20046;-89
2023/05/31 01:05:26;;;;;;;6.85;3.85;;;;;;;14.98;80.73;99399.38;4888684;29;20027;-89
2023/05/31 01:07:52;;;;;;;6.10;3.67;;;;;;;14.87;80.97;99398.75;4902635;29;20087;-89
2023/05/31 01:10:18;;;;;;;6.82;3.38;;;;;;;15.00;80.61;99414.25;4903041;29;20082;-89
2023/05/31 01:12:55;;;;;;;6.88;3.55;;;;;;;15.05;80.54;99427.72;4890011;29;20032;-89
2023/05/31 01:15:31;;;;;;;9.32;3.80;;;;;;;15.03;80.67;99421.81;4927416;29;20023;-90
2023/05/31 01:18:00;;;;;;;6.13;3.63;;;;;;;15.00;80.06;99413.44;4915353;29;20059;-90
2023/05/31 01:20:31;;;;;;;5.35;3.03;;;;;;;14.87;80.42;99410.38;4915482;29;20035;-89
2023/05/31 01:23:37;;;;;;;5.32;3.60;;;;;;;14.87;80.72;99415.00;4904132;29;20032;-90
2023/05/31 01:26:05;;;;;;;5.25;3.38;;;;;;;14.95;80.50;99431.41;4903937;29;20034;-90
2023/05/31 01:28:33;;;;;;;8.32;3.13;;;;;;;14.85;78.87;99400.94;4919024;29;20032;-90
2023/05/31 01:31:01;;;;;;;4.40;2.95;;;;;;;14.91;78.32;99422.25;4887400;29;20095;-91
2023/05/31 01:33:27;;;;;;;7.13;3.55;;;;;;;14.95;77.72;99417.84;4887621;29;20031;-90
2023/05/31 01:35:52;;;;;;;8.40;3.22;;;;;;;14.98;77.49;99415.66;4891612;29;20439;-90
2023/05/31 01:38:19;;;;;;;4.28;2.70;;;;;;;14.97;77.50;99416.75;4891236;29;20036;-90
2023/05/31 01:40:44;;;;;;;5.85;2.92;;;;;;;14.96;77.32;99407.81;4921899;29;20027;-90
2023/05/31 01:43:10;;;;;;;3.83;2.63;;;;;;;15.08;76.82;99423.63;4906648;29;20023;-90
2023/05/31 01:45:36;;;;;;;8.98;3.20;;;;;;;14.99;76.85;99409.94;4890921;29;20426;-89
2023/05/31 01:48:04;;;;;;;7.88;2.97;;;;;;;15.05;77.14;99426.94;4890749;29;20028;-90
2023/05/31 01:50:31;;;;;;;6.93;3.28;;;;;;;14.97;77.58;99422.97;4890634;29;20035;-90
2023/05/31 01:52:58;;;;;;;9.88;3.00;;;;;;;14.94;78.53;99429.81;4890732;29;20027;-90
2023/05/31 01:55:23;;;;;;;7.57;3.50;;;;;;;14.81;78.86;99422.41;4938787;29;20577;-90
2023/05/31 01:57:49;;;;;;;6.03;3.13;;;;;;;14.70;78.91;99408.22;4921892;29;20127;-90
2023/05/31 02:00:15;;;;;;;8.98;3.40;;;;;;;14.54;79.73;99404.91;4906395;29;20031;-90
2023/05/31 02:02:41;;;;;;;6.18;3.40;;;;;;;14.58;79.98;99416.00;4891463;29;20045;-90
2023/05/31 02:05:08;;;;;;;8.48;3.10;;;;;;;14.52;80.56;99425.25;4889788;29;20058;-90
2023/05/31 02:07:35;;;;;;;9.13;3.40;;;;;;;14.57;80.10;99427.13;4863580;29;1224135;-90
2023/05/31 02:10:01;;;;;;;7.15;3.35;;;;;;;14.60;80.35;99440.91;4906581;29;20031;-90
2023/05/31 02:12:27;;;;;;;5.40;3.60;;;;;;;14.39;80.68;99423.31;4906284;29;20410;-90
2023/05/31 02:14:52;;;;;;;10.60;4.10;;;;;;;14.45;81.00;99441.09;4890355;29;20024;-90
2023/05/31 02:17:23;;;;;;;5.63;3.28;;;;;;;14.35;81.40;99434.69;4890260;29;20020;-90
2023/05/31 02:19:52;;;;;;;4.68;3.50;;;;;;;14.27;81.03;99421.00;4889032;29;20494;-90
2023/05/31 02:22:20;;;;;;;8.18;3.97;;;;;;;14.19;80.99;99440.63;4896536;29;20035;-90
2023/05/31 02:24:46;;;;;;;6.53;3.30;;;;;;;14.30;81.31;99456.47;4890283;29;20031;-90
2023/05/31 02:27:12;;;;;;;4.40;3.35;;;;;;;14.24;80.89;99444.06;4897759;29;20026;-89
2023/05/31 02:29:38;;;;;;;8.82;3.97;;;;;;;14.13;81.39;99437.16;4907453;29;20024;-90
2023/05/31 02:32:06;;;;;;;7.15;3.45;;;;;;;14.19;82.04;99465.78;4904708;29;20064;-90
2023/05/31 02:34:31;;;;;;;4.63;3.30;;;;;;;14.00;81.87;99446.81;4895638;29;20030;-90
2023/05/31 02:36:57;;;;;;;9.73;3.30;;;;;;;14.13;81.10;99456.94;4901810;29;20023;-90
2023/05/31 02:39:24;;;;;;;6.03;3.17;;;;;;;14.20;80.67;99461.19;4883291;29;20516;-91
2023/05/31 02:41:50;;;;;;;9.13;3.70;;;;;;;14.03;81.15;99442.69;4901908;29;20028;-91
2023/05/31 02:44:15;;;;;;;6.85;3.30;;;;;;;14.22;80.92;99459.00;4891982;29;20031;-90
2023/05/31 02:46:41;;;;;;;12.40;3.67;;;;;;;14.34;80.77;99465.63;4890935;29;20028;-89
2023/05/31 02:49:06;;;;;;;9.02;3.90;;;;;;;14.23;81.08;99458.69;4890940;29;20028;-90
2023/05/31 02:51:32;;;;;;;8.30;3.40;;;;;;;14.27;81.07;99472.47;4908206;29;20032;-90
2023/05/31 02:53:58;;;;;;;5.65;3.45;;;;;;;14.24;80.97;99460.31;4907171;29;20024;-90
2023/05/31 02:56:23;;;;;;;6.88;3.42;;;;;;;14.03;80.77;99443.53;4907862;29;20470;-90
2023/05/31 02:58:49;;;;;;;5.22;3.78;;;;;;;14.00;81.12;99463.03;4906394;29;20031;-89
2023/05/31 03:01:15;;;;;;;5.50;3.30;;;;;;;13.95;81.49;99463.91;4906833;29;20075;-90
2023/05/31 03:03:41;;;;;;;5.93;3.53;;;;;;;13.98;81.30;99469.84;4921639;29;20035;-89
2023/05/31 03:06:07;;;;;;;8.60;3.58;;;;;;;13.85;81.90;99455.91;4889680;29;20035;-90
2023/05/31 03:08:32;;;;;;;10.45;3.85;;;;;;;13.87;81.78;99455.63;4918656;29;20112;-89
2023/05/31 03:10:58;;;;;;;5.07;3.40;;;;;;;13.93;81.65;99466.09;4905778;29;20114;-89
2023/05/31 03:13:23;;;;;;;5.97;4.07;;;;;;;13.95;82.13;99484.78;4890135;29;20031;-91
2023/05/31 03:15:49;;;;;;;14.43;4.20;;;;;;;14.05;82.01;99490.06;4905306;29;20599;-90
2023/05/31 03:18:15;;;;;;;7.10;3.80;;;;;;;13.90;80.87;99457.75;4921046;29;20498;-90
2023/05/31 03:20:40;;;;;;;8.38;3.30;;;;;;;14.01;81.18;99470.09;4889784;29;20474;-90
2023/05/31 03:23:08;;;;;;;9.18;3.78;;;;;;;13.91;81.53;99457.47;4905154;29;20031;-89
2023/05/31 03:25:34;;;;;;;6.57;3.22;;;;;;;14.03;80.90;99461.66;4891150;29;20034;-90
2023/05/31 03:28:00;;;;;;;6.43;3.85;;;;;;;14.21;80.68;99479.84;4890241;29;20023;-90
2023/05/31 03:30:25;;;;;;;5.50;3.90;;;;;;;14.22;80.68;99475.25;4905806;29;20038;-95
2023/05/31 03:32:51;;;;;;;6.50;3.58;;;;;;;14.28;80.26;99479.50;4922442;29;20063;-92
2023/05/31 03:35:17;;;;;;;8.07;3.92;;;;;;;14.30;80.27;99488.16;4891516;29;20027;-91
2023/05/31 03:37:43;;;;;;;5.93;3.55;;;;;;;14.37;80.37;99499.44;4923285;29;20035;-92
2023/05/31 03:40:09;;;;;;;8.35;4.20;;;;;;;14.33;80.58;99482.94;4891738;29;20087;-91
2023/05/31 03:42:34;;;;;;;7.50;3.33;;;;;;;14.36;80.21;99487.00;4906328;29;20513;-93
2023/05/31 03:45:00;;;;;;;5.40;3.42;;;;;;;14.38;79.95;99483.97;4905587;29;20027;-91
2023/05/31 03:47:26;;;;;;;8.50;3.60;;;;;;;14.44;79.42;99493.66;4890478;29;20031;-91
2023/05/31 03:49:52;;;;;;;6.85;3.58;;;;;;;14.49;79.56;99491.69;4890787;29;20028;-91
2023/05/31 03:52:19;;;;;;;6.22;4.30;;;;;;;14.53;79.29;99494.63;4906357;29;20179;-90
2023/05/31 03:54:46;;;;;;;5.40;3.75;;;;;;;14.55;79.15;99484.31;4890740;29;20055;-92
2023/05/31 03:57:12;;;;;;;7.78;3.80;;;;;;;14.62;78.77;99490.19;4887725;29;20019;-92
2023/05/31 03:59:37;;;;;;;7.03;3.60;;;;;;;14.73;78.53;99497.09;4898009;29;20031;-90
2023/05/31 04:02:03;;;;;;;8.70;4.50;;;;;;;14.80;78.67;99499.44;4875868;29;20036;-91
2023/05/31 04:04:32;;;;;;;7.57;4.13;;;;;;;14.92;78.54;99499.78;4904830;29;20475;-91
2023/05/31 04:06:59;;;;;;;12.77;5.30;;;;;;;14.80;78.31;99490.50;4904994;29;20183;-91
2023/05/31 04:09:25;;;;;;;11.23;4.65;;;;;;;14.86;78.38;99490.13;4894268;29;20513;-92
2023/05/31 04:11:54;;;;;;;7.07;4.30;;;;;;;14.98;78.12;99481.53;4906943;29;20024;-94
2023/05/31 04:14:20;;;;;;;10.15;4.20;;;;;;;14.96;77.14;99475.59;4908434;29;20504;-92
2023/05/31 04:16:50;;;;;;;9.80;4.05;;;;;;;15.08;77.13;99496.84;4914710;29;20024;-96
2023/05/31 04:19:30;;;;;;;9.60;4.15;;;;;;;15.12;77.33;99487.81;4933358;29;20040;-96
2023/05/31 04:21:57;;;;;;;7.50;4.07;;;;;;;15.50;75.44;99511.34;4905192;29;20041;-95
2023/05/31 04:24:29;;;;;;;8.50;3.53;;;;;;;15.56;75.03;99519.13;4902669;29;20126;-95
2023/05/31 04:26:58;;;;;;;8.88;4.20;;;;;;;15.54;75.84;99504.22;4934405;29;20542;-96
2023/05/31 04:29:50;;;;;;;9.13;3.72;;;;;;;15.61;74.52;99504.66;4917689;29;20032;-96
2023/05/31 04:32:25;;;;;;;6.90;3.97;;;;;;;15.61;74.35;99485.66;4916905;29;20069;-96
2023/05/31 04:35:03;;;;;;;5.65;4.07;;;;;;;15.72;73.72;99508.00;4913102;29;20028;-92
2023/05/31 04:37:32;;;;;;;11.98;3.92;;;;;;;15.72;73.50;99480.88;4872366;29;20075;-91
2023/05/31 04:39:58;;;;;;;8.88;3.90;;;;;;;15.83;72.89;99501.28;4891082;29;20035;-91
2023/05/31 04:42:26;;;;;;;8.27;3.88;;;;;;;16.03;72.14;99504.72;4900579;29;20044;-92
2023/05/31 04:44:58;;;;;;;7.40;3.42;;;;;;;16.06;72.14;99493.25;4877299;29;20031;-94
2023/05/31 04:47:28;;;;;;;7.38;3.97;;;;;;;16.31;72.07;99519.09;4887875;29;20032;-92
2023/05/31 04:49:57;;;;;;;9.27;3.70;;;;;;;16.23;72.08;99517.91;4891036;29;20107;-91
2023/05/31 04:52:28;;;;;;;8.90;3.80;;;;;;;16.24;72.88;99511.34;4919558;29;20051;-91
2023/05/31 04:54:54;;;;;;;11.38;4.55;;;;;;;16.24;72.41;99500.50;4889297;29;20582;-91
2023/05/31 04:57:22;;;;;;;5.72;3.35;;;;;;;16.35;70.69;99514.66;4889568;29;20028;-91
2023/05/31 04:59:48;;;;;;;7.28;4.40;;;;;;;16.33;70.56;99511.44;4885756;29;20425;-92
2023/05/31 05:02:13;;;;;;;11.25;3.80;;;;;;;16.38;70.91;99496.97;4880459;29;20042;-92
2023/05/31 05:04:47;;;;;;;7.90;4.30;;;;;;;16.57;71.11;99513.94;4873222;29;20036;-92
2023/05/31 05:07:14;;;;;;;6.68;3.78;;;;;;;16.66;70.24;99527.63;4903182;29;20483;-94
2023/05/31 05:09:42;;;;;;;8.23;5.05;;;;;;;16.86;70.39;99529.91;4894562;29;20032;-94
2023/05/31 05:12:10;;;;;;;10.13;7.82;;;;;;;16.98;70.91;99532.13;4905019;29;20032;-94
2023/05/31 05:14:39;;;;;;;9.40;6.78;;;;;;;17.14;71.15;99532.53;4908460;29;20024;-92
2023/05/31 05:17:07;;;;;;;10.82;4.70;;;;;;;17.08;69.30;99512.84;4909687;29;20023;-92
2023/05/31 05:19:33;;;;;;;13.35;5.03;;;;;;;17.23;68.88;99519.81;4908961;29;20111;-91
2023/05/31 05:21:58;;;;;;;6.78;4.10;;;;;;;17.42;67.72;99532.44;4886995;29;20063;-92
2023/05/31 05:24:25;;;;;;;9.25;3.92;;;;;;;17.55;67.40;99526.91;4926712;29;20027;-90
2023/05/31 05:26:51;;;;;;;7.53;3.80;;;;;;;17.63;67.76;99535.47;4914651;29;20096;-92
2023/05/31 05:29:16;;;;;;;6.22;4.00;;;;;;;17.58;67.55;99514.63;4922823;29;20494;-91
2023/05/31 05:31:42;;;;;;;168.50;115.50;;;;;;;17.54;67.52;99511.69;4894468;29;20027;-91
2023/05/31 05:34:09;;;;;;;8.68;6.38;;;;;;;17.70;67.27;99525.75;4910694;29;20127;-91
2023/05/31 05:36:36;;;;;;;9.13;5.03;;;;;;;17.74;67.20;99520.44;4910972;29;20024;-91
2023/05/31 05:39:05;;;;;;;5.25;3.70;;;;;;;17.67;66.70;99511.94;4894022;29;20020;-91
2023/05/31 05:41:31;;;;;;;16.30;11.15;;;;;;;17.83;67.19;99523.28;4911191;29;20050;-91
2023/05/31 05:44:05;;;;;;;6.75;4.18;;;;;;;18.03;67.16;99546.44;4927226;29;20032;-91
2023/05/31 05:46:34;;;;;;;11.25;5.18;;;;;;;18.11;66.41;99530.09;4899657;29;20030;-94
2023/05/31 05:49:03;;;;;;;10.88;6.20;;;;;;;18.27;65.56;99529.69;4911497;29;20031;-93
2023/05/31 05:51:28;;;;;;;18.63;9.38;;;;;;;18.48;65.42;99532.63;4894856;29;20473;-93
2023/05/31 05:53:54;;;;;;;19.98;13.25;;;;;;;18.58;65.00;99530.41;4911368;29;20038;-95
2023/05/31 05:56:19;;;;;;;28.58;22.38;;;;;;;18.66;65.10;99530.75;4915082;29;20098;-94
2023/05/31 05:58:46;;;;;;;30.10;18.92;;;;;;;18.72;64.94;99537.66;4912879;29;20039;-92
2023/05/31 06:01:22;;;;;;;23.10;15.52;;;;;;;18.74;65.01;99533.50;4926340;29;20474;-93
2023/05/31 06:03:50;;;;;;;13.90;9.02;;;;;;;18.83;63.30;99540.91;4913491;29;20036;-92
2023/05/31 06:06:16;;;;;;;15.27;10.90;;;;;;;18.96;63.55;99554.41;4896042;29;20095;-93
2023/05/31 06:08:43;;;;;;;13.98;11.02;;;;;;;18.96;63.62;99540.75;4926611;29;20043;-93
2023/05/31 06:11:08;;;;;;;14.57;9.98;;;;;;;19.09;63.82;99546.38;4908849;29;20051;-94
2023/05/31 06:13:34;;;;;;;15.77;11.60;;;;;;;19.06;64.01;99531.44;4911611;29;20032;-92
2023/05/31 06:16:03;;;;;;;27.42;16.67;;;;;;;19.16;63.97;99538.53;4928474;29;20020;-94
2023/05/31 06:18:28;;;;;;;65.30;42.38;;;;;;;19.27;63.27;99539.78;4899711;29;20035;-93
2023/05/31 06:20:55;;;;;;;23.77;16.88;;;;;;;19.32;62.57;99544.28;4906483;29;20055;-92
2023/05/31 06:23:21;;;;;;;15.25;9.20;;;;;;;19.52;63.05;99546.34;4912844;29;20118;-93
2023/05/31 06:25:46;;;;;;;16.80;8.57;;;;;;;19.68;63.29;99543.91;4895794;29;20028;-93
2023/05/31 06:28:12;;;;;;;11.77;8.52;;;;;;;19.68;62.30;99519.31;4904189;29;20031;-91
2023/05/31 06:30:37;;;;;;;11.13;9.02;;;;;;;19.82;61.13;99524.63;4912120;29;20403;-92
2023/05/31 06:33:03;;;;;;;14.35;9.15;;;;;;;19.99;60.68;99540.16;4890027;29;20547;-93
2023/05/31 06:35:29;;;;;;;12.35;9.20;;;;;;;20.27;59.66;99535.03;4875901;29;20115;-92
2023/05/31 06:37:55;;;;;;;15.02;7.70;;;;;;;20.31;60.36;99522.31;4922635;29;20038;-93
2023/05/31 06:40:23;;;;;;;12.70;8.02;;;;;;;20.53;58.89;99550.53;4890337;29;20091;-92
2023/05/31 06:42:50;;;;;;;20.95;13.35;;;;;;;20.70;58.99;99547.69;4893821;29;20028;-96
2023/05/31 06:45:16;;;;;;;17.48;7.55;;;;;;;20.64;59.78;99548.22;4927547;29;20024;-95
2023/05/31 06:47:41;;;;;;;10.68;6.50;;;;;;;20.62;59.52;99526.66;4894211;29;20095;-96
2023/05/31 06:50:12;;;;;;;12.70;6.07;;;;;;;20.70;59.48;99525.81;4897629;29;20048;-96
2023/05/31 06:52:39;;;;;;;9.10;5.40;;;;;;;20.90;59.31;99546.13;4896960;29;20048;-96
2023/05/31 06:55:08;;;;;;;11.25;5.05;;;;;;;20.92;59.13;99529.38;4879133;29;20119;-96
2023/05/31 06:57:38;;;;;;;7.03;5.00;;;;;;;21.11;58.03;99543.38;4894642;29;20020;-95
2023/05/31 07:00:07;;;;;;;9.70;4.82;;;;;;;21.18;57.67;99526.41;4896453;29;20459;-96
2023/05/31 07:02:44;;;;;;;11.85;5.25;;;;;;;21.22;57.31;99529.28;4933426;29;20027;-95
2023/05/31 07:05:10;;;;;;;11.38;5.55;;;;;;;21.47;56.21;99541.97;4883757;29;20044;-93
2023/05/31 07:07:47;;;;;;;12.15;6.78;;;;;;;21.63;56.55;99542.13;4895779;29;20274;-95
2023/05/31 07:10:17;;;;;;;9.00;5.90;;;;;;;21.55;56.43;99534.81;4887978;29;20087;-96
2023/05/31 07:12:43;;;;;;;11.18;5.93;;;;;;;21.67;55.79;99545.00;4873286;29;20036;-92
2023/05/31 07:15:21;;;;;;;10.60;5.72;;;;;;;21.86;55.55;99550.75;4874631;29;20044;-96
2023/05/31 07:17:47;;;;;;;10.77;5.75;;;;;;;21.88;55.10;99534.75;4890315;29;20119;-93
2023/05/31 07:20:16;;;;;;;14.80;5.75;;;;;;;22.06;55.48;99527.13;4873126;29;20491;-95
2023/05/31 07:22:41;;;;;;;10.00;4.85;;;;;;;22.11;54.59;99528.84;4885579;29;20531;-94
2023/05/31 07:25:08;;;;;;;8.23;4.50;;;;;;;22.32;54.89;99540.53;4890603;29;20051;-92
2023/05/31 07:27:45;;;;;;;6.60;4.35;;;;;;;22.24;54.02;99525.00;4878806;29;20029;-94
2023/05/31 07:30:36;;;;;;;8.18;4.82;;;;;;;22.45;55.67;99521.31;4881310;29;20475;-92
2023/05/31 07:43:32;;;;;;;6.28;3.95;;;;;;;23.37;53.44;99545.25;4863190;29;20270;-92
2023/05/31 07:46:46;;;;;;;15.40;4.40;;;;;;;23.42;53.64;99537.91;4847600;29;20033;-93
2023/05/31 07:49:28;;;;;;;9.07;3.90;;;;;;;23.47;52.14;99516.50;4922427;29;20078;-95
2023/05/31 07:51:54;;;;;;;5.82;3.60;;;;;;;23.37;51.06;99504.03;4920055;29;20095;-93
2023/05/31 07:54:21;;;;;;;5.78;4.15;;;;;;;23.61;51.43;99524.28;4903850;29;20063;-92
2023/05/31 07:56:47;;;;;;;5.60;3.70;;;;;;;23.54;51.97;99522.16;4906692;29;20491;-96
2023/05/31 07:59:16;;;;;;;7.22;4.18;;;;;;;23.58;51.81;99512.06;4917311;29;20035;-93
2023/05/31 08:01:41;;;;;;;6.30;3.90;;;;;;;23.67;51.07;99530.34;4915228;29;20035;-94
2023/05/31 08:04:08;;;;;;;5.95;3.80;;;;;;;23.52;50.73;99507.97;4895790;29;20036;-91
2023/05/31 08:06:44;;;;;;;6.30;3.88;;;;;;;23.71;50.63;99515.53;4903636;29;20028;-94
2023/05/31 08:09:13;;;;;;;6.53;3.45;;;;;;;23.74;50.75;99511.28;4892980;29;20115;-94
2023/05/31 08:11:43;;;;;;;6.75;3.95;;;;;;;23.75;51.11;99510.13;4906626;29;20450;-93
2023/05/31 08:14:12;;;;;;;8.25;3.92;;;;;;;24.00;50.39;99533.59;4903604;29;20031;-93
2023/05/31 08:17:12;;;;;;;8.15;4.25;;;;;;;24.08;50.54;99528.28;4905327;29;20032;-94
2023/05/31 08:19:38;;;;;;;5.75;3.60;;;;;;;24.15;51.36;99507.22;4904113;29;20415;-91
2023/05/31 08:22:04;;;;;;;5.03;3.60;;;;;;;24.28;49.76;99524.44;4887262;29;20055;-90
2023/05/31 08:24:43;;;;;;;;;;;;;;;;;;;;;
2023/05/31 08:27:11;;;;;;;14.30;9.15;;;;;;;24.63;48.63;99534.69;4925993;29;20036;-95
2023/05/31 08:29:46;;;;;;;6.85;4.03;;;;;;;24.53;49.08;99525.06;4894432;29;20071;-93
2023/05/31 08:32:14;;;;;;;6.88;3.70;;;;;;;24.65;48.06;99531.59;4910352;29;20039;-93
2023/05/31 08:41:30;;;;;;;5.07;3.90;;;;;;;25.07;45.29;99523.47;4868121;29;20036;-94
2023/05/31 08:44:12;;;;;;;;;;;;;;;;;;;;;
2023/05/31 08:46:42;;;;;;;6.70;4.55;;;;;;;25.28;44.89;99512.09;4832221;29;20106;-92
2023/05/31 08:49:26;;;;;;;7.03;5.03;;;;;;;25.38;44.13;99507.91;4829967;29;20039;-96
2023/05/31 08:52:25;;;;;;;8.93;3.60;;;;;;;25.39;43.63;99512.28;4844415;29;20074;-96
2023/05/31 08:54:53;;;;;;;7.35;3.83;;;;;;;25.39;42.59;99520.56;4824406;29;20050;-96
2023/05/31 08:57:28;;;;;;;3.72;2.88;;;;;;;25.14;42.03;99518.06;4823190;29;20037;-95
2023/05/31 08:59:53;;;;;;;4.13;2.83;;;;;;;25.33;41.96;99530.28;4847216;29;20093;-92
2023/05/31 09:02:22;;;;;;;4.38;2.97;;;;;;;25.23;42.15;99501.34;4816696;29;20033;-93
2023/05/31 09:04:47;;;;;;;7.68;3.88;;;;;;;25.34;42.45;99505.13;4818325;29;20136;-93
2023/05/31 09:07:13;;;;;;;4.38;3.00;;;;;;;25.12;41.97;99503.06;4830585;29;20140;-89
2023/05/31 09:09:41;;;;;;;6.95;3.00;;;;;;;25.33;42.06;99516.50;4815213;29;20041;-93
2023/05/31 09:12:15;;;;;;;5.47;3.00;;;;;;;25.27;41.26;99504.97;4833417;29;20038;-93
2023/05/31 09:14:44;;;;;;;5.57;2.92;;;;;;;25.21;41.54;99498.16;4835513;29;20509;-93
2023/05/31 09:17:10;;;;;;;3.90;2.60;;;;;;;25.39;39.77;99515.03;4846049;29;20078;-90
2023/05/31 09:19:40;;;;;;;4.97;3.75;;;;;;;25.24;38.36;99499.41;4832776;29;20042;-94
2023/05/31 09:22:06;;;;;;;4.78;3.08;;;;;;;25.13;40.73;99512.91;4832691;29;20026;-94
2023/05/31 09:24:38;;;;;;;10.15;3.65;;;;;;;25.07;38.88;99495.91;4836711;29;20035;-94
2023/05/31 09:27:07;;;;;;;4.15;2.90;;;;;;;25.05;39.31;99497.41;4883842;29;20045;-93
2023/05/31 09:33:03;;;;;;;5.90;3.30;;;;;;;25.22;36.59;99519.06;4848894;29;20128;-96
2023/05/31 09:35:44;;;;;;;4.75;3.33;;;;;;;24.98;36.29;99501.59;4849265;29;20570;-95
2023/05/31 09:38:47;;;;;;;5.00;2.22;;;;;;;24.87;35.65;99483.28;4926566;29;20028;-94
2023/05/31 09:41:35;;;;;;;9.30;2.60;;;;;;;25.05;35.40;99502.91;4908241;29;20028;-94
2023/05/31 11:09:15;;;;;;;4.68;2.13;;;;;;;26.06;34.94;99428.34;5378935;23;20062;-93
2023/05/31 11:11:41;;;;;;;7.55;3.05;;;;;;;26.09;36.27;99439.44;4911440;29;20110;-93
2023/05/31 11:14:26;;;;;;;4.75;2.30;;;;;;;26.09;36.50;99417.34;4941830;29;20031;-94
2023/05/31 11:16:59;;;;;;;5.45;2.40;;;;;;;26.49;36.91;99426.97;4912469;29;20035;-92
2023/05/31 11:19:28;;;;;;;4.15;2.28;;;;;;;26.57;35.61;99425.13;4960934;29;20038;-91
2023/05/31 11:21:55;;;;;;;4.85;2.20;;;;;;;26.46;35.28;99411.16;4957703;29;20038;-88
2023/05/31 11:24:52;;;;;;;3.92;2.58;;;;;;;26.38;35.61;99421.31;4960039;29;20039;-95
2023/05/31 11:27:48;;;;;;;4.43;3.00;;;;;;;26.45;34.74;99422.56;4947700;29;20039;-95
2023/05/31 11:30:20;;;;;;;4.13;2.80;;;;;;;26.46;35.71;99393.78;4932389;29;20405;-96
2023/05/31 11:33:12;;;;;;;;;;;;;;;;;;;;;
2023/05/31 11:35:41;;;;;;;;;;;;;;;27.08;33.80;99410.72;4950084;29;20399;-94
2023/05/31 11:38:29;;;;;;;5.43;2.55;;;;;;;27.20;34.85;99384.75;4968175;29;19914;-96
2023/05/31 11:46:36;;;;;;;7.97;3.10;;;;;;;27.43;33.79;99373.53;4941868;23;20060;-92
2023/05/31 11:49:11;;;;;;;2.92;2.30;;;;;;;27.40;33.70;99377.09;4871255;29;20525;-94
2023/05/31 11:51:47;;;;;;;4.82;3.38;;;;;;;27.15;32.45;99377.63;4872708;29;20124;-95
2023/05/31 11:54:29;;;;;;;4.63;3.03;;;;;;;27.24;32.58;99391.16;4875514;29;20048;-95
2023/05/31 11:57:40;;;;;;;5.38;2.40;;;;;;;27.10;32.25;99369.69;4873464;29;20119;-95
2023/05/31 12:00:21;;;;;;;;;;;;;;;;;;;;;
2023/05/31 12:10:22;;;;;;;;;;;;;;;;;;;;;
2023/05/31 12:19:58;;;;;;;;;;;;;;;;;;;;;
2023/05/31 12:23:40;;;;;;;9.20;2.30;;;;;;;27.37;31.51;99364.00;4891144;29;20124;-95
2023/05/31 12:26:36;;;;;;;4.88;2.92;;;;;;;27.58;31.91;99379.97;4901422;29;20051;-96
2023/05/31 12:32:14;;;;;;;5.68;3.05;;;;;;;27.68;31.30;99348.84;5181499;23;20059;-93
2023/05/31 12:35:05;;;;;;;5.20;2.45;;;;;;;27.80;32.24;99356.81;4923611;29;20043;-92
2023/05/31 12:37:58;;;;;;;3.78;2.30;;;;;;;27.95;31.70;99355.00;4918777;29;20055;-93
2023/05/31 12:40:36;;;;;;;8.13;2.60;;;;;;;27.90;31.85;99354.56;4901645;29;20035;-92
2023/05/31 12:43:08;;;;;;;3.65;2.70;;;;;;;27.99;31.28;99344.75;4892215;29;20046;-94
2023/05/31 12:45:56;;;;;;;;;;;;;;;;;;;;;
2023/05/31 12:48:50;;;;;;;6.10;3.42;;;;;;;28.16;31.52;99325.81;4904842;29;20378;-94
2023/05/31 12:51:54;;;;;;;;;;;;;;;;;;;;;
2023/05/31 12:54:45;;;;;;;3.70;2.70;;;;;;;28.51;28.86;99330.72;4926765;29;20112;-93
2023/05/31 12:57:20;;;;;;;3.83;2.38;;;;;;;28.35;29.23;99344.91;4908557;29;20122;-93
2023/05/31 13:00:03;;;;;;;7.60;3.67;;;;;;;28.01;28.98;99334.03;4922177;29;20042;-92
2023/05/31 13:02:36;;;;;;;8.43;3.80;;;;;;;27.92;29.56;99307.91;4928963;29;20041;-96
2023/05/31 13:05:03;;;;;;;6.10;3.20;;;;;;;28.38;29.65;99321.16;4943075;29;20031;-94
2023/05/31 13:08:03;;;;;;;;;;;;;;;;;;;;;
2023/05/31 13:11:31;;;;;;;;;;;;;;;;;;;;;
2023/05/31 13:13:55;;;;;;;;;;;;;;;;;;;;;
2023/05/31 13:29:22;;;;;;;4.57;2.70;;;;;;;29.28;28.85;99296.41;4883811;29;20044;-94
2023/05/31 13:31:49;;;;;;;7.80;3.33;;;;;;;29.24;28.41;99301.16;4869559;29;20060;-95
2023/05/31 13:34:15;;;;;;;6.72;3.38;;;;;;;29.51;27.78;99307.91;4869354;29;20236;-95
2023/05/31 13:36:50;;;;;;;4.20;2.92;;;;;;;29.90;27.00;99314.59;4912196;29;20070;-95
2023/05/31 13:39:28;;;;;;;;;;;;;;;;;;;;;
2023/05/31 13:42:18;;;;;;;;;;;;;;;;;;;;;
2023/05/31 13:44:58;;;;;;;6.35;2.85;;;;;;;30.44;26.83;99287.41;4936677;29;20098;-91
2023/05/31 13:47:25;;;;;;;4.18;2.20;;;;;;;30.69;25.96;99294.81;4916860;29;20063;-96
2023/05/31 13:50:12;;;;;;;;;;;;;;;;;;;;;
2023/05/31 13:53:17;;;;;;;5.72;2.58;;;;;;;30.90;25.25;99286.38;4932496;29;20127;-96
2023/05/31 13:55:46;;;;;;;4.93;2.70;;;;;;;31.25;25.38;99278.91;4961045;28;20046;-92
2023/05/31 13:58:12;;;;;;;6.82;3.00;;;;;;;31.37;24.90;99277.63;4939488;28;20043;-92
2023/05/31 14:00:37;;;;;;;9.18;2.83;;;;;;;31.14;25.31;99292.13;4954568;29;20486;-94
2023/05/31 14:03:06;;;;;;;4.57;2.80;;;;;;;31.50;24.73;99297.41;4948584;28;20041;-93
2023/05/31 14:05:32;;;;;;;4.80;2.97;;;;;;;32.05;23.93;99298.44;4982518;28;20050;-92
2023/05/31 14:07:59;;;;;;;4.70;2.35;;;;;;;31.93;23.65;99286.59;4950433;28;20114;-91
2023/05/31 14:10:25;;;;;;;3.97;2.50;;;;;;;32.32;23.49;99285.34;4966590;28;20121;-91
2023/05/31 14:12:50;;;;;;;6.97;2.50;;;;;;;32.53;22.76;99277.91;4948879;28;20501;-93
2023/05/31 14:15:25;;;;;;;3.97;2.63;;;;;;;32.91;22.94;99291.69;4928617;28;20034;-93
2023/05/31 14:17:53;;;;;;;4.43;2.35;;;;;;;32.98;22.81;99272.06;4961353;28;20031;-94
2023/05/31 14:20:18;;;;;;;3.40;2.10;;;;;;;33.37;22.52;99296.53;4947012;28;20045;-95
2023/05/31 14:22:46;;;;;;;4.35;2.35;;;;;;;33.59;22.05;99273.81;4963462;28;20521;-95
2023/05/31 14:25:26;;;;;;;2.80;2.10;;;;;;;33.69;21.89;99286.81;4960672;28;20421;-91
2023/05/31 14:27:56;;;;;;;3.60;2.33;;;;;;;34.37;21.15;99281.88;4946014;28;20043;-92
2023/05/31 14:30:41;;;;;;;4.82;2.35;;;;;;;34.31;20.55;99270.41;4945670;28;20039;-95